Time;durP1;ratioP1;P1;durP2;ratioP2;P2;SDS_P1;SDS_P2;PMS_P1;PMS_P2;Temp;Humidity;BMP_temperature;BMP_pressure;BME280_temperature;BME280_humidity;BME280_pressure;Samples;Min_cycle;Max_cycle;Signal;HPM_P1;HPM_P2
2021/06/10 00:02:20;;;;;;;4.35;1.75;;;;;;;;;;5094431;28;20036;-65
2021/06/10 00:04:45;;;;;;;3.78;1.80;;;;;;;;;;5094731;28;20070;-65
2021/06/10 00:07:11;;;;;;;4.07;1.90;;;;;;;;;;5076576;28;20115;-65
2021/06/10 00:09:36;;;;;;;4.25;2.30;;;;;;;;;;5094804;28;20023;-65
2021/06/10 00:12:02;;;;;;;3.58;2.17;;;;;;;;;;5094424;28;20093;-65
2021/06/10 00:14:27;;;;;;;4.85;1.90;;;;;;;;;;5094520;28;20032;-65
2021/06/10 00:16:53;;;;;;;3.08;1.60;;;;;;;;;;5113679;28;20020;-65
2021/06/10 00:19:18;;;;;;;4.32;2.13;;;;;;;;;;5114669;28;20030;-65
2021/06/10 00:21:44;;;;;;;2.97;1.60;;;;;;;;;;5114621;28;20039;-65
2021/06/10 00:24:09;;;;;;;3.28;2.00;;;;;;;;;;5096616;28;20028;-65
2021/06/10 00:26:35;;;;;;;4.78;1.70;;;;;;;;;;5114768;28;20016;-65
2021/06/10 00:29:00;;;;;;;3.10;1.58;;;;;;;;;;5115004;28;20039;-65
2021/06/10 00:31:25;;;;;;;3.85;1.42;;;;;;;;;;5114244;28;20077;-65
2021/06/10 00:33:50;;;;;;;2.95;1.60;;;;;;;;;;5114689;28;20030;-65
2021/06/10 00:36:16;;;;;;;3.47;1.77;;;;;;;;;;5114254;28;20046;-65
2021/06/10 00:38:41;;;;;;;4.15;1.50;;;;;;;;;;5114232;28;20023;-65
2021/06/10 00:41:06;;;;;;;3.13;1.83;;;;;;;;;;5114151;28;20024;-65
2021/06/10 00:43:32;;;;;;;3.40;1.52;;;;;;;;;;5114422;28;20039;-65
2021/06/10 00:45:57;;;;;;;3.88;1.60;;;;;;;;;;5114292;28;20015;-65
2021/06/10 00:48:22;;;;;;;3.47;1.65;;;;;;;;;;5114451;28;20065;-65
2021/06/10 00:50:51;;;;;;;2.03;1.30;;;;;;;;;;5114035;28;20543;-65
2021/06/10 00:53:22;;;;;;;3.00;1.70;;;;;;;;;;5114347;28;20020;-65
2021/06/10 00:55:51;;;;;;;3.22;1.40;;;;;;;;;;5114088;28;20443;-65
2021/06/10 00:58:16;;;;;;;3.40;1.73;;;;;;;;;;5113957;28;20511;-65
2021/06/10 01:00:42;;;;;;;2.80;1.45;;;;;;;;;;5114083;28;20102;-66
2021/06/10 01:03:07;;;;;;;2.88;1.50;;;;;;;;;;5114386;28;20030;-65
2021/06/10 01:05:32;;;;;;;2.90;1.38;;;;;;;;;;5113668;28;20038;-65
2021/06/10 01:08:05;;;;;;;2.65;1.48;;;;;;;;;;5113703;28;20026;-66
2021/06/10 01:10:45;;;;;;;2.80;1.55;;;;;;;;;;5113454;28;20104;-65
2021/06/10 01:13:10;;;;;;;2.85;1.95;;;;;;;;;;5106168;28;20118;-65
2021/06/10 01:15:39;;;;;;;5.20;1.73;;;;;;;;;;5100866;28;20451;-65
2021/06/10 01:18:04;;;;;;;5.05;1.45;;;;;;;;;;5113609;28;20472;-65
2021/06/10 01:20:30;;;;;;;4.10;1.80;;;;;;;;;;5113572;28;20080;-65
2021/06/10 01:22:56;;;;;;;4.18;1.83;;;;;;;;;;5113664;28;20068;-65
2021/06/10 01:25:39;;;;;;;3.10;1.70;;;;;;;;;;5113394;28;20028;-65
2021/06/10 01:28:12;;;;;;;4.28;1.70;;;;;;;;;;5113805;28;20123;-65
2021/06/10 01:30:46;;;;;;;2.70;1.70;;;;;;;;;;5113532;28;20107;-65
2021/06/10 01:33:23;;;;;;;6.22;2.00;;;;;;;;;;5113866;28;20032;-65
2021/06/10 01:35:56;;;;;;;3.17;1.95;;;;;;;;;;5113447;28;20035;-66
2021/06/10 01:38:22;;;;;;;3.03;1.88;;;;;;;;;;5113720;28;20130;-65
2021/06/10 01:40:48;;;;;;;3.90;1.77;;;;;;;;;;5113160;28;20502;-65
2021/06/10 01:43:15;;;;;;;3.40;1.83;;;;;;;;;;5114579;28;20051;-65
2021/06/10 01:45:41;;;;;;;5.03;1.77;;;;;;;;;;5116976;28;20057;-65
2021/06/10 01:48:06;;;;;;;4.07;2.15;;;;;;;;;;5099646;28;20035;-65
2021/06/10 01:50:32;;;;;;;4.05;1.88;;;;;;;;;;5117557;28;20062;-65
2021/06/10 01:52:57;;;;;;;4.57;1.90;;;;;;;;;;5117760;28;20384;-65
2021/06/10 01:55:24;;;;;;;8.10;2.30;;;;;;;;;;5117606;28;20031;-65
2021/06/10 01:57:50;;;;;;;3.58;2.03;;;;;;;;;;5117452;28;20016;-65
2021/06/10 02:00:15;;;;;;;6.20;2.40;;;;;;;;;;5117274;28;20535;-64
2021/06/10 02:02:41;;;;;;;4.65;2.10;;;;;;;;;;5117361;28;20031;-65
2021/06/10 02:05:08;;;;;;;3.45;2.30;;;;;;;;;;5117529;28;20027;-65
2021/06/10 02:07:37;;;;;;;4.18;2.17;;;;;;;;;;5117500;28;20027;-65
2021/06/10 02:10:05;;;;;;;4.38;2.00;;;;;;;;;;5117303;28;20055;-65
2021/06/10 02:12:31;;;;;;;6.30;2.40;;;;;;;;;;5117221;28;20032;-65
2021/06/10 02:14:58;;;;;;;4.75;2.08;;;;;;;;;;5117230;28;20023;-65
2021/06/10 02:17:23;;;;;;;4.85;2.25;;;;;;;;;;5117271;28;20059;-65
2021/06/10 02:19:48;;;;;;;4.55;2.30;;;;;;;;;;5117210;28;20054;-65
2021/06/10 02:22:13;;;;;;;4.25;2.70;;;;;;;;;;5117447;28;20452;-65
2021/06/10 02:24:39;;;;;;;4.43;2.35;;;;;;;;;;5116858;28;20040;-65
2021/06/10 02:27:04;;;;;;;3.40;2.35;;;;;;;;;;5117091;28;20037;-66
2021/06/10 02:29:29;;;;;;;6.05;2.42;;;;;;;;;;5117113;28;20062;-65
2021/06/10 02:31:55;;;;;;;3.55;2.08;;;;;;;;;;5116771;28;20399;-65
2021/06/10 02:34:20;;;;;;;3.30;1.95;;;;;;;;;;5116709;28;20440;-65
2021/06/10 02:36:46;;;;;;;4.20;2.25;;;;;;;;;;5116811;28;20031;-65
2021/06/10 02:39:12;;;;;;;5.97;2.55;;;;;;;;;;5116966;28;20459;-65
2021/06/10 02:41:39;;;;;;;4.50;2.22;;;;;;;;;;5116692;28;20055;-65
2021/06/10 02:44:06;;;;;;;3.90;1.95;;;;;;;;;;5098572;28;20078;-65
2021/06/10 02:46:32;;;;;;;4.63;2.63;;;;;;;;;;5116626;28;20031;-65
2021/06/10 02:48:58;;;;;;;5.10;2.50;;;;;;;;;;5116688;28;20428;-65
2021/06/10 02:51:27;;;;;;;6.72;2.20;;;;;;;;;;5116794;28;20130;-65
2021/06/10 02:53:53;;;;;;;5.07;2.30;;;;;;;;;;5116393;28;20035;-65
2021/06/10 02:56:19;;;;;;;7.85;2.33;;;;;;;;;;5115506;28;20027;-65
2021/06/10 02:58:46;;;;;;;3.42;2.00;;;;;;;;;;5115584;28;20038;-65
2021/06/10 03:01:11;;;;;;;3.92;2.05;;;;;;;;;;5116312;28;20039;-65
2021/06/10 03:03:37;;;;;;;3.22;1.85;;;;;;;;;;5115961;28;20030;-67
2021/06/10 03:06:03;;;;;;;4.03;2.20;;;;;;;;;;5116254;28;20028;-67
2021/06/10 03:08:29;;;;;;;3.05;1.73;;;;;;;;;;5116292;28;20084;-67
2021/06/10 03:10:59;;;;;;;2.10;1.30;;;;;;;;;;5116011;28;20059;-67
2021/06/10 03:13:25;;;;;;;2.33;1.30;;;;;;;;;;5116326;28;20173;-65
2021/06/10 03:15:51;;;;;;;1.98;1.25;;;;;;;;;;5115923;28;20031;-65
2021/06/10 03:18:17;;;;;;;3.35;1.45;;;;;;;;;;5116193;28;20103;-65
2021/06/10 03:20:43;;;;;;;3.92;1.50;;;;;;;;;;5115948;28;20071;-65
2021/06/10 03:23:08;;;;;;;3.80;1.73;;;;;;;;;;5116069;28;20040;-65
2021/06/10 03:25:34;;;;;;;2.30;1.20;;;;;;;;;;5115859;28;20055;-65
2021/06/10 03:28:01;;;;;;;3.40;1.40;;;;;;;;;;5115989;28;20032;-65
2021/06/10 03:30:26;;;;;;;3.03;1.60;;;;;;;;;;5115769;28;20035;-65
2021/06/10 03:32:52;;;;;;;3.97;1.42;;;;;;;;;;5115492;28;20036;-65
2021/06/10 03:35:18;;;;;;;4.80;1.60;;;;;;;;;;5115606;28;20499;-65
2021/06/10 03:37:43;;;;;;;3.40;1.50;;;;;;;;;;5115593;28;20031;-65
2021/06/10 03:40:10;;;;;;;2.60;0.90;;;;;;;;;;5115750;28;20428;-65
2021/06/10 03:42:36;;;;;;;1.40;0.80;;;;;;;;;;5115056;28;20539;-65
2021/06/10 03:45:03;;;;;;;1.75;0.80;;;;;;;;;;5115766;28;20040;-65
2021/06/10 03:47:29;;;;;;;0.90;0.60;;;;;;;;;;5115388;28;20466;-65
2021/06/10 03:49:54;;;;;;;0.93;0.52;;;;;;;;;;5115301;28;20055;-65
2021/06/10 03:52:23;;;;;;;4.32;0.60;;;;;;;;;;5115294;28;20032;-65
2021/06/10 03:54:48;;;;;;;1.05;0.70;;;;;;;;;;5115456;28;20456;-65
2021/06/10 03:57:14;;;;;;;2.10;0.68;;;;;;;;;;5115273;28;20039;-65
2021/06/10 03:59:39;;;;;;;1.63;0.70;;;;;;;;;;5096997;28;20126;-65
2021/06/10 04:02:05;;;;;;;0.40;0.40;;;;;;;;;;5114917;28;20028;-64
2021/06/10 04:04:30;;;;;;;1.15;0.50;;;;;;;;;;5115260;28;20028;-65
2021/06/10 04:06:57;;;;;;;2.80;0.80;;;;;;;;;;5114585;28;20032;-64
2021/06/10 04:09:22;;;;;;;0.47;0.30;;;;;;;;;;5115080;28;20052;-64
2021/06/10 04:11:48;;;;;;;0.90;0.60;;;;;;;;;;5114888;28;20071;-65
2021/06/10 04:14:13;;;;;;;0.90;0.50;;;;;;;;;;5115427;28;20027;-65
2021/06/10 04:16:38;;;;;;;0.93;0.60;;;;;;;;;;5096843;28;20035;-64
2021/06/10 04:19:03;;;;;;;0.98;0.60;;;;;;;;;;5094652;28;20081;-65
2021/06/10 04:21:29;;;;;;;0.70;0.65;;;;;;;;;;5094469;28;20036;-65
2021/06/10 04:23:54;;;;;;;0.90;0.45;;;;;;;;;;5099290;28;20474;-65
2021/06/10 04:26:20;;;;;;;0.40;0.28;;;;;;;;;;5114772;28;20141;-65
2021/06/10 04:28:45;;;;;;;0.70;0.40;;;;;;;;;;5114733;28;20040;-65
2021/06/10 04:31:15;;;;;;;1.30;0.65;;;;;;;;;;5114209;28;20042;-65
2021/06/10 04:33:40;;;;;;;1.25;0.63;;;;;;;;;;5114311;28;20503;-65
2021/06/10 04:36:05;;;;;;;1.58;0.60;;;;;;;;;;5114565;28;20038;-65
2021/06/10 04:38:31;;;;;;;0.85;0.63;;;;;;;;;;5114464;28;20098;-65
2021/06/10 04:40:56;;;;;;;1.67;0.57;;;;;;;;;;5114357;28;20039;-65
2021/06/10 04:43:21;;;;;;;0.75;0.60;;;;;;;;;;5096257;28;20032;-64
2021/06/10 04:45:47;;;;;;;2.33;0.90;;;;;;;;;;5114325;28;20535;-65
2021/06/10 04:48:12;;;;;;;1.38;0.77;;;;;;;;;;5114374;28;20422;-65
2021/06/10 04:50:37;;;;;;;1.63;0.70;;;;;;;;;;5114249;28;20035;-65
2021/06/10 04:53:03;;;;;;;1.42;0.73;;;;;;;;;;5113883;28;20051;-65
2021/06/10 04:55:28;;;;;;;2.58;0.80;;;;;;;;;;5114615;28;20035;-65
2021/06/10 04:57:53;;;;;;;2.20;1.02;;;;;;;;;;5113734;28;20032;-65
2021/06/10 05:00:19;;;;;;;2.10;0.82;;;;;;;;;;5113971;28;20019;-65
2021/06/10 05:02:44;;;;;;;3.42;0.80;;;;;;;;;;5114019;28;20072;-64
2021/06/10 05:05:10;;;;;;;1.13;0.50;;;;;;;;;;5114191;28;20067;-65
2021/06/10 05:07:35;;;;;;;1.08;0.55;;;;;;;;;;5113837;28;20020;-64
2021/06/10 05:10:00;;;;;;;2.20;0.70;;;;;;;;;;5113878;28;20048;-65
2021/06/10 05:12:26;;;;;;;1.67;0.80;;;;;;;;;;5113901;28;20036;-65
2021/06/10 05:14:51;;;;;;;1.02;0.68;;;;;;;;;;5113800;28;20064;-65
2021/06/10 05:17:17;;;;;;;0.50;0.50;;;;;;;;;;5113190;28;20093;-65
2021/06/10 05:19:42;;;;;;;1.40;0.70;;;;;;;;;;5113463;28;20028;-65
2021/06/10 05:22:07;;;;;;;1.02;0.45;;;;;;;;;;5113835;28;20490;-65
2021/06/10 05:24:33;;;;;;;1.10;0.80;;;;;;;;;;5113827;28;20108;-65
2021/06/10 05:26:58;;;;;;;1.35;0.55;;;;;;;;;;5113749;28;20066;-64
2021/06/10 05:29:23;;;;;;;0.73;0.60;;;;;;;;;;5113549;28;20085;-64
2021/06/10 05:31:48;;;;;;;0.43;0.40;;;;;;;;;;5113514;28;20046;-65
2021/06/10 05:34:14;;;;;;;1.52;0.57;;;;;;;;;;5114129;28;20028;-65
2021/06/10 05:36:39;;;;;;;0.52;0.50;;;;;;;;;;5113530;28;20020;-65
2021/06/10 05:39:05;;;;;;;0.73;0.50;;;;;;;;;;5113825;28;20032;-65
2021/06/10 05:41:31;;;;;;;1.08;0.70;;;;;;;;;;5113562;28;20039;-65
2021/06/10 05:43:56;;;;;;;1.25;0.60;;;;;;;;;;5113303;28;20142;-65
2021/06/10 05:46:22;;;;;;;0.47;0.40;;;;;;;;;;5113483;28;20020;-65
2021/06/10 05:48:48;;;;;;;1.63;0.40;;;;;;;;;;5113597;28;20036;-65
2021/06/10 05:51:13;;;;;;;1.10;0.68;;;;;;;;;;5113407;28;20035;-65
2021/06/10 05:53:38;;;;;;;1.13;0.60;;;;;;;;;;5113570;28;20031;-65
2021/06/10 05:56:04;;;;;;;1.35;0.50;;;;;;;;;;5113504;28;20027;-65
2021/06/10 05:58:29;;;;;;;0.60;0.45;;;;;;;;;;5113570;28;20521;-65
2021/06/10 06:00:54;;;;;;;1.02;0.45;;;;;;;;;;5113444;28;20046;-65
2021/06/10 06:03:20;;;;;;;0.80;0.45;;;;;;;;;;5113435;28;20463;-65
2021/06/10 06:05:45;;;;;;;0.75;0.57;;;;;;;;;;5113207;28;20031;-65
2021/06/10 06:08:11;;;;;;;1.85;0.90;;;;;;;;;;5113033;28;20032;-65
2021/06/10 06:10:37;;;;;;;2.58;1.30;;;;;;;;;;5113041;28;20093;-65
2021/06/10 06:13:03;;;;;;;2.60;0.98;;;;;;;;;;5113291;28;20359;-65
2021/06/10 06:15:29;;;;;;;0.93;0.73;;;;;;;;;;5105436;28;20477;-64
2021/06/10 06:17:54;;;;;;;0.98;0.57;;;;;;;;;;5092730;28;20039;-65
2021/06/10 06:20:21;;;;;;;6.35;0.63;;;;;;;;;;5093064;28;20027;-64
2021/06/10 06:22:47;;;;;;;1.52;0.70;;;;;;;;;;5092785;28;20052;-65
2021/06/10 06:25:13;;;;;;;1.08;0.40;;;;;;;;;;5092700;28;20391;-65
2021/06/10 06:27:38;;;;;;;0.75;0.50;;;;;;;;;;5092474;28;20016;-65
2021/06/10 06:30:05;;;;;;;0.65;0.60;;;;;;;;;;5095148;28;20034;-65
2021/06/10 06:32:30;;;;;;;0.77;0.52;;;;;;;;;;5096400;28;20036;-65
2021/06/10 06:34:55;;;;;;;1.73;0.82;;;;;;;;;;5108859;28;20012;-65
2021/06/10 06:37:21;;;;;;;0.63;0.55;;;;;;;;;;5096134;28;20031;-65
2021/06/10 06:39:46;;;;;;;1.23;0.60;;;;;;;;;;5096602;28;20039;-65
2021/06/10 06:42:11;;;;;;;1.17;0.65;;;;;;;;;;5096295;28;20024;-64
2021/06/10 06:44:36;;;;;;;1.95;0.80;;;;;;;;;;5096450;28;20028;-64
2021/06/10 06:47:02;;;;;;;0.50;0.45;;;;;;;;;;5096236;28;20081;-65
2021/06/10 06:49:27;;;;;;;1.45;0.70;;;;;;;;;;5096348;28;20376;-65
2021/06/10 06:51:52;;;;;;;1.02;0.60;;;;;;;;;;5096017;28;20044;-66
2021/06/10 06:54:18;;;;;;;1.40;0.82;;;;;;;;;;5096331;28;20082;-65
2021/06/10 06:56:43;;;;;;;1.35;0.70;;;;;;;;;;5096022;28;20357;-65
2021/06/10 06:59:08;;;;;;;1.27;0.77;;;;;;;;;;5096399;28;20028;-65
2021/06/10 07:01:34;;;;;;;1.13;0.80;;;;;;;;;;5095836;28;20427;-65
2021/06/10 07:03:59;;;;;;;1.27;0.90;;;;;;;;;;5096070;28;20020;-65
2021/06/10 07:06:24;;;;;;;2.35;0.80;;;;;;;;;;5095851;28;20036;-65
2021/06/10 07:08:50;;;;;;;1.33;0.90;;;;;;;;;;5095913;28;20051;-65
2021/06/10 07:11:15;;;;;;;1.45;1.00;;;;;;;;;;5095298;28;20052;-64
2021/06/10 07:13:41;;;;;;;1.50;0.98;;;;;;;;;;5095697;28;20115;-65
2021/06/10 07:16:06;;;;;;;0.88;0.80;;;;;;;;;;5108889;28;20085;-65
2021/06/10 07:18:31;;;;;;;2.60;0.95;;;;;;;;;;5116052;28;20012;-65
2021/06/10 07:20:57;;;;;;;1.40;0.90;;;;;;;;;;5116062;28;20039;-65
2021/06/10 07:23:22;;;;;;;1.25;0.85;;;;;;;;;;5115841;28;20084;-65
2021/06/10 07:25:48;;;;;;;1.50;1.00;;;;;;;;;;5115996;28;20231;-65
2021/06/10 07:28:13;;;;;;;1.80;1.30;;;;;;;;;;5115820;28;20464;-65
2021/06/10 07:30:39;;;;;;;2.17;1.20;;;;;;;;;;5108988;28;20035;-65
2021/06/10 07:33:04;;;;;;;1.33;0.90;;;;;;;;;;5104769;28;20093;-65
2021/06/10 07:35:32;;;;;;;2.08;1.00;;;;;;;;;;5096653;28;20028;-65
2021/06/10 07:37:58;;;;;;;1.65;1.00;;;;;;;;;;5095248;28;20028;-65
2021/06/10 07:40:23;;;;;;;1.40;1.00;;;;;;;;;;5094971;28;20027;-65
2021/06/10 07:42:49;;;;;;;1.88;1.10;;;;;;;;;;5094645;28;20032;-65
2021/06/10 07:45:14;;;;;;;1.40;1.08;;;;;;;;;;5094755;28;20438;-65
2021/06/10 07:47:39;;;;;;;1.83;1.17;;;;;;;;;;5094499;28;20530;-65
2021/06/10 07:50:06;;;;;;;1.45;0.90;;;;;;;;;;5094584;28;20035;-65
2021/06/10 07:52:32;;;;;;;2.22;1.17;;;;;;;;;;5094752;28;20506;-65
2021/06/10 07:54:57;;;;;;;2.17;1.30;;;;;;;;;;5094925;28;20091;-65
2021/06/10 07:57:22;;;;;;;2.97;1.52;;;;;;;;;;5094894;28;20051;-65
2021/06/10 07:59:47;;;;;;;1.98;1.40;;;;;;;;;;5094800;28;20035;-65
2021/06/10 08:02:13;;;;;;;2.63;1.23;;;;;;;;;;5095009;28;20027;-65
2021/06/10 08:04:38;;;;;;;2.38;1.27;;;;;;;;;;5089087;28;20125;-64
2021/06/10 08:07:03;;;;;;;2.25;1.50;;;;;;;;;;5088624;28;20352;-64
2021/06/10 08:09:32;;;;;;;3.45;1.55;;;;;;;;;;5091902;28;20020;-65
2021/06/10 08:11:58;;;;;;;2.45;1.58;;;;;;;;;;5094111;28;20050;-65
2021/06/10 08:14:23;;;;;;;2.10;1.50;;;;;;;;;;5094111;28;20036;-65
2021/06/10 08:16:48;;;;;;;5.05;1.40;;;;;;;;;;5112395;28;20020;-65
2021/06/10 08:19:14;;;;;;;1.70;1.10;;;;;;;;;;5114440;28;20038;-65
2021/06/10 08:21:39;;;;;;;1.98;1.33;;;;;;;;;;5114089;28;20422;-65
2021/06/10 08:24:05;;;;;;;2.65;1.45;;;;;;;;;;5114442;28;20031;-65
2021/06/10 08:26:30;;;;;;;1.98;1.10;;;;;;;;;;5103047;28;20111;-63
2021/06/10 08:28:55;;;;;;;3.08;1.80;;;;;;;;;;5088435;28;20380;-65
2021/06/10 08:31:21;;;;;;;2.65;1.50;;;;;;;;;;5087647;28;20024;-64
2021/06/10 08:33:46;;;;;;;5.72;1.75;;;;;;;;;;5089571;28;20073;-65
2021/06/10 08:36:11;;;;;;;4.43;1.90;;;;;;;;;;5089215;28;20059;-65
2021/06/10 08:38:37;;;;;;;2.90;1.95;;;;;;;;;;5091188;28;20022;-65
2021/06/10 08:41:03;;;;;;;3.35;1.95;;;;;;;;;;5107345;28;20491;-65
2021/06/10 08:43:28;;;;;;;3.15;2.08;;;;;;;;;;5099556;28;20090;-65
2021/06/10 08:46:01;;;;;;;3.85;2.20;;;;;;;;;;5088801;28;20439;-64
2021/06/10 08:48:30;;;;;;;3.10;2.13;;;;;;;;;;5105719;28;20492;-64
2021/06/10 08:50:56;;;;;;;3.92;2.47;;;;;;;;;;5107017;28;20065;-65
2021/06/10 08:53:21;;;;;;;3.30;2.25;;;;;;;;;;5105803;28;20455;-65
2021/06/10 08:55:49;;;;;;;5.07;2.33;;;;;;;;;;5091900;28;20055;-65
2021/06/10 08:58:14;;;;;;;4.22;2.25;;;;;;;;;;5097831;28;20031;-65
2021/06/10 09:00:40;;;;;;;4.60;2.50;;;;;;;;;;5099447;28;20306;-65
2021/06/10 09:03:06;;;;;;;3.67;2.30;;;;;;;;;;5087703;28;20030;-64
2021/06/10 09:05:32;;;;;;;3.95;2.60;;;;;;;;;;5105625;28;20059;-65
2021/06/10 09:07:58;;;;;;;3.70;2.75;;;;;;;;;;5100575;28;20099;-65
2021/06/10 09:10:26;;;;;;;3.88;2.67;;;;;;;;;;5094060;28;20048;-65
2021/06/10 09:12:53;;;;;;;4.22;3.03;;;;;;;;;;5102163;28;20050;-65
2021/06/10 09:15:19;;;;;;;4.20;2.70;;;;;;;;;;5094755;28;20038;-65
2021/06/10 09:17:44;;;;;;;3.28;2.45;;;;;;;;;;5089704;28;20027;-65
2021/06/10 09:20:18;;;;;;;3.90;2.55;;;;;;;;;;5097479;28;20090;-65
2021/06/10 09:22:44;;;;;;;4.22;2.70;;;;;;;;;;5098488;28;20046;-65
2021/06/10 09:25:10;;;;;;;3.92;2.20;;;;;;;;;;5090861;28;20036;-65
2021/06/10 09:27:54;;;;;;;4.53;2.58;;;;;;;;;;5103199;28;20031;-65
2021/06/10 09:30:45;;;;;;;9.80;2.40;;;;;;;;;;5094483;28;20472;-65
2021/06/10 09:33:12;;;;;;;5.70;2.60;;;;;;;;;;5105795;28;20035;-65
2021/06/10 09:35:38;;;;;;;4.93;2.30;;;;;;;;;;5089846;28;20158;-65
2021/06/10 09:38:06;;;;;;;4.65;2.78;;;;;;;;;;5099616;28;20495;-65
2021/06/10 09:40:31;;;;;;;4.65;2.95;;;;;;;;;;5096538;28;20106;-65
2021/06/10 09:42:56;;;;;;;3.22;2.50;;;;;;;;;;5092948;28;20173;-65
2021/06/10 09:45:24;;;;;;;3.28;2.40;;;;;;;;;;5103422;28;20047;-65
2021/06/10 09:47:52;;;;;;;7.75;2.70;;;;;;;;;;5083097;28;20392;-65
2021/06/10 09:50:20;;;;;;;5.13;2.88;;;;;;;;;;5067875;28;20031;-65
2021/06/10 09:52:47;;;;;;;4.95;2.05;;;;;;;;;;5098433;28;20047;-65
2021/06/10 09:55:31;;;;;;;4.68;1.85;;;;;;;;;;5089950;28;20027;-65
2021/06/10 09:58:12;;;;;;;3.55;1.88;;;;;;;;;;5094022;28;20070;-65
2021/06/10 10:00:37;;;;;;;5.63;1.80;;;;;;;;;;5094676;28;20040;-65
2021/06/10 10:03:03;;;;;;;3.58;1.77;;;;;;;;;;5100054;28;20258;-65
2021/06/10 10:05:28;;;;;;;5.05;2.10;;;;;;;;;;5112927;28;20035;-65
2021/06/10 10:07:53;;;;;;;5.78;2.13;;;;;;;;;;5112790;28;20073;-65
2021/06/10 10:10:19;;;;;;;3.92;2.28;;;;;;;;;;5113207;28;20488;-64
2021/06/10 10:12:45;;;;;;;4.72;2.40;;;;;;;;;;5106237;28;20039;-65
2021/06/10 10:15:10;;;;;;;3.88;2.30;;;;;;;;;;5103477;28;20097;-65
2021/06/10 10:17:36;;;;;;;6.25;2.47;;;;;;;;;;5103436;28;20117;-65
2021/06/10 10:20:02;;;;;;;3.60;2.30;;;;;;;;;;5101341;28;20038;-65
2021/06/10 10:22:28;;;;;;;5.05;2.13;;;;;;;;;;5097340;28;20024;-65
2021/06/10 10:24:54;;;;;;;2.85;1.90;;;;;;;;;;5100020;28;20153;-65
2021/06/10 10:27:21;;;;;;;4.22;2.20;;;;;;;;;;5096085;28;20031;-65
2021/06/10 10:29:47;;;;;;;3.90;2.10;;;;;;;;;;5109590;28;20020;-65
2021/06/10 10:32:14;;;;;;;3.53;2.28;;;;;;;;;;5104134;28;20040;-65
2021/06/10 10:34:40;;;;;;;2.78;1.77;;;;;;;;;;5106033;28;20063;-65
2021/06/10 10:37:22;;;;;;;2.70;1.92;;;;;;;;;;5093327;28;20053;-65
2021/06/10 10:39:48;;;;;;;5.95;2.03;;;;;;;;;;5109325;28;20031;-65
2021/06/10 10:42:25;;;;;;;4.10;1.75;;;;;;;;;;5094749;28;20040;-65
2021/06/10 10:44:53;;;;;;;2.25;1.60;;;;;;;;;;5103023;28;20024;-65
2021/06/10 10:47:18;;;;;;;1.52;1.35;;;;;;;;;;5099849;28;20461;-65
2021/06/10 10:49:53;;;;;;;2.53;1.65;;;;;;;;;;5096533;28;20058;-65
2021/06/10 10:52:20;;;;;;;2.58;1.70;;;;;;;;;;5106564;28;20050;-65
2021/06/10 10:54:46;;;;;;;4.43;1.60;;;;;;;;;;5109243;28;20754;-65
2021/06/10 10:57:38;;;;;;;1.67;1.20;;;;;;;;;;5104234;28;20116;-64
2021/06/10 11:00:05;;;;;;;1.83;1.52;;;;;;;;;;5100762;28;20038;-65
2021/06/10 11:02:30;;;;;;;4.85;1.00;;;;;;;;;;5104445;28;20164;-65
2021/06/10 11:05:00;;;;;;;1.00;0.80;;;;;;;;;;5106042;28;20091;-65
2021/06/10 11:07:39;;;;;;;1.48;0.90;;;;;;;;;;5095966;28;20023;-66
2021/06/10 11:10:04;;;;;;;1.08;0.80;;;;;;;;;;5077632;28;20131;-65
2021/06/10 11:12:42;;;;;;;2.05;0.82;;;;;;;;;;5105164;28;20137;-65
2021/06/10 11:15:23;;;;;;;1.25;0.90;;;;;;;;;;5088018;28;20040;-65
2021/06/10 11:17:55;;;;;;;3.90;1.00;;;;;;;;;;5102502;28;20039;-66
2021/06/10 11:20:39;;;;;;;1.55;0.75;;;;;;;;;;5095018;28;20118;-65
2021/06/10 11:23:11;;;;;;;2.58;1.67;;;;;;;;;;5094908;28;20028;-65
2021/06/10 11:25:44;;;;;;;3.30;1.60;;;;;;;;;;5103694;28;20035;-65
2021/06/10 11:28:09;;;;;;;2.53;1.50;;;;;;;;;;5098607;28;20424;-65
2021/06/10 11:30:36;;;;;;;2.97;1.30;;;;;;;;;;5102618;28;20077;-65
2021/06/10 11:33:07;;;;;;;2.28;1.67;;;;;;;;;;5098058;28;20077;-65
2021/06/10 11:35:53;;;;;;;2.60;1.42;;;;;;;;;;5093709;28;20540;-66
2021/06/10 11:38:27;;;;;;;3.38;1.52;;;;;;;;;;5105630;28;20071;-65
2021/06/10 11:40:55;;;;;;;1.35;1.10;;;;;;;;;;5105693;28;20027;-65
2021/06/10 11:43:21;;;;;;;2.50;1.33;;;;;;;;;;5095860;28;20040;-65
2021/06/10 11:45:47;;;;;;;3.45;1.35;;;;;;;;;;5107030;28;20026;-66
2021/06/10 11:48:13;;;;;;;1.27;1.02;;;;;;;;;;5105137;28;20035;-65
2021/06/10 11:50:41;;;;;;;4.10;1.50;;;;;;;;;;5108574;28;20036;-64
2021/06/10 11:53:08;;;;;;;1.58;0.90;;;;;;;;;;5102520;28;20036;-65
2021/06/10 11:55:34;;;;;;;0.68;0.57;;;;;;;;;;5105574;28;20514;-65
2021/06/10 11:58:01;;;;;;;1.02;0.52;;;;;;;;;;5101863;28;20028;-65
2021/06/10 12:00:47;;;;;;;1.88;0.70;;;;;;;;;;5097046;28;20028;-65
2021/06/10 12:03:16;;;;;;;1.40;0.60;;;;;;;;;;5103187;28;20547;-65
2021/06/10 12:05:45;;;;;;;1.08;0.60;;;;;;;;;;5105145;28;20492;-65
2021/06/10 12:08:11;;;;;;;0.70;0.60;;;;;;;;;;5101239;28;20395;-65
2021/06/10 12:10:37;;;;;;;0.77;0.70;;;;;;;;;;5096714;28;20054;-65
2021/06/10 12:13:03;;;;;;;1.90;0.90;;;;;;;;;;5106307;28;20047;-65
2021/06/10 12:15:31;;;;;;;1.20;0.80;;;;;;;;;;5105283;28;20098;-65
2021/06/10 12:18:04;;;;;;;1.60;0.75;;;;;;;;;;5100375;28;20058;-65
2021/06/10 12:20:30;;;;;;;2.90;0.82;;;;;;;;;;5107220;28;20039;-65
2021/06/10 12:22:56;;;;;;;1.15;0.70;;;;;;;;;;5098353;28;20031;-64
2021/06/10 12:25:26;;;;;;;1.67;0.63;;;;;;;;;;5102897;28;20055;-65
2021/06/10 12:27:53;;;;;;;0.98;0.70;;;;;;;;;;5092175;28;20027;-65
2021/06/10 12:30:25;;;;;;;1.70;0.75;;;;;;;;;;5106239;28;20034;-65
2021/06/10 12:32:51;;;;;;;1.23;0.70;;;;;;;;;;5094283;28;20400;-65
2021/06/10 12:35:21;;;;;;;1.27;0.70;;;;;;;;;;5089351;28;20047;-65
2021/06/10 12:37:50;;;;;;;2.95;0.98;;;;;;;;;;5102764;28;20468;-65
2021/06/10 12:40:15;;;;;;;1.23;0.82;;;;;;;;;;5092891;28;20028;-65
2021/06/10 12:42:40;;;;;;;1.67;0.85;;;;;;;;;;5105573;28;20096;-65
2021/06/10 12:45:24;;;;;;;0.73;0.70;;;;;;;;;;5107123;28;20040;-64
2021/06/10 12:47:49;;;;;;;3.63;1.20;;;;;;;;;;5087976;28;20055;-66
2021/06/10 12:50:18;;;;;;;0.88;0.73;;;;;;;;;;5102564;28;20067;-65
2021/06/10 12:52:45;;;;;;;1.60;0.47;;;;;;;;;;5107274;28;20049;-66
2021/06/10 12:55:12;;;;;;;1.13;0.60;;;;;;;;;;5107633;28;20027;-64
2021/06/10 12:57:38;;;;;;;2.05;0.73;;;;;;;;;;5104827;28;20541;-65
2021/06/10 13:00:08;;;;;;;3.85;0.55;;;;;;;;;;5101893;28;20031;-65
2021/06/10 13:02:33;;;;;;;0.40;0.40;;;;;;;;;;5106413;28;20937;-65
2021/06/10 13:05:12;;;;;;;0.75;0.50;;;;;;;;;;5093431;28;20046;-65
2021/06/10 13:07:39;;;;;;;1.15;0.80;;;;;;;;;;5105107;28;20363;-66
2021/06/10 13:10:09;;;;;;;0.50;0.50;;;;;;;;;;5100222;28;20621;-65
2021/06/10 13:12:40;;;;;;;1.77;0.57;;;;;;;;;;5099413;28;20048;-65
2021/06/10 13:15:06;;;;;;;0.90;0.63;;;;;;;;;;5098459;28;20353;-65
2021/06/10 13:17:51;;;;;;;1.25;0.70;;;;;;;;;;5104222;28;20046;-65
2021/06/10 13:20:35;;;;;;;0.75;0.50;;;;;;;;;;5094866;28;20028;-65
2021/06/10 13:23:01;;;;;;;0.50;0.40;;;;;;;;;;5092477;28;20066;-65
2021/06/10 13:25:26;;;;;;;1.63;0.60;;;;;;;;;;5102209;28;20735;-64
2021/06/10 13:28:06;;;;;;;0.85;0.50;;;;;;;;;;5097776;28;20028;-65
2021/06/10 13:30:32;;;;;;;0.40;0.40;;;;;;;;;;5101444;28;20110;-65
2021/06/10 13:32:57;;;;;;;1.92;0.43;;;;;;;;;;5093557;28;20127;-65
2021/06/10 13:35:25;;;;;;;1.63;0.52;;;;;;;;;;5104238;28;20020;-65
2021/06/10 13:37:50;;;;;;;2.60;0.55;;;;;;;;;;5104948;28;20030;-65
2021/06/10 13:40:16;;;;;;;0.47;0.47;;;;;;;;;;5104439;28;20028;-65
2021/06/10 13:42:41;;;;;;;0.85;0.52;;;;;;;;;;5104976;28;20119;-65
2021/06/10 13:45:06;;;;;;;2.10;1.00;;;;;;;;;;5090760;28;20063;-64
2021/06/10 13:47:32;;;;;;;1.20;0.70;;;;;;;;;;5101830;28;20390;-66
2021/06/10 13:50:00;;;;;;;0.65;0.65;;;;;;;;;;5102524;28;20055;-65
2021/06/10 13:52:25;;;;;;;0.70;0.70;;;;;;;;;;5106549;28;20035;-65
2021/06/10 13:54:50;;;;;;;2.15;0.80;;;;;;;;;;5106399;28;20506;-65
2021/06/10 13:57:16;;;;;;;1.02;0.77;;;;;;;;;;5106088;28;20031;-65
2021/06/10 13:59:41;;;;;;;0.95;0.60;;;;;;;;;;5106768;28;20032;-66
2021/06/10 14:02:07;;;;;;;2.72;0.70;;;;;;;;;;5105991;28;20028;-66
2021/06/10 14:04:32;;;;;;;2.83;0.80;;;;;;;;;;5106304;28;20034;-65
2021/06/10 14:06:59;;;;;;;1.63;0.68;;;;;;;;;;5103623;28;20037;-65
2021/06/10 14:09:24;;;;;;;1.75;0.73;;;;;;;;;;5105316;28;20078;-64
2021/06/10 14:11:49;;;;;;;0.63;0.50;;;;;;;;;;5105912;28;20024;-64
2021/06/10 14:14:14;;;;;;;1.33;0.80;;;;;;;;;;5106721;28;20527;-65
2021/06/10 14:16:40;;;;;;;1.10;0.70;;;;;;;;;;5106271;28;20039;-65
2021/06/10 14:19:08;;;;;;;1.25;0.70;;;;;;;;;;5106407;28;20417;-65
2021/06/10 14:21:33;;;;;;;1.27;0.60;;;;;;;;;;5105438;28;20505;-66
2021/06/10 14:23:59;;;;;;;2.30;0.60;;;;;;;;;;5105962;28;20069;-65
2021/06/10 14:26:25;;;;;;;0.80;0.77;;;;;;;;;;5106896;28;20103;-65
2021/06/10 14:28:51;;;;;;;3.28;0.57;;;;;;;;;;5106965;28;20424;-65
2021/06/10 14:34:01;;;;;;;1.42;0.98;;;;;;;;;;5105714;28;20065;-65
2021/06/10 14:36:27;;;;;;;1.38;0.70;;;;;;;;;;5103451;28;20468;-65
2021/06/10 14:38:52;;;;;;;3.13;0.80;;;;;;;;;;5098452;28;20031;-65
2021/06/10 14:41:18;;;;;;;1.52;0.98;;;;;;;;;;5094679;28;20024;-65
2021/06/10 14:43:44;;;;;;;1.73;0.75;;;;;;;;;;5101321;28;20043;-65
2021/06/10 14:46:09;;;;;;;1.40;1.02;;;;;;;;;;5102306;28;20337;-65